sensor_id;sensor_type;location;lat;lon;timestamp;P1;durP1;ratioP1;P2;durP2;ratioP2
21497;SDS011;10910;50.932;0.246;2022-07-29T00:00:08;0.65;;;0.65;;
21497;SDS011;10910;50.932;0.246;2022-07-29T00:02:35;0.60;;;0.60;;
21497;SDS011;10910;50.932;0.246;2022-07-29T00:05:01;0.50;;;0.50;;
21497;SDS011;10910;50.932;0.246;2022-07-29T00:07:27;0.50;;;0.50;;
21497;SDS011;10910;50.932;0.246;2022-07-29T00:09:53;0.50;;;0.50;;
21497;SDS011;10910;50.932;0.246;2022-07-29T00:12:20;0.50;;;0.50;;
21497;SDS011;10910;50.932;0.246;2022-07-29T00:14:47;0.50;;;0.50;;
21497;SDS011;10910;50.932;0.246;2022-07-29T00:17:13;0.60;;;0.60;;
21497;SDS011;10910;50.932;0.246;2022-07-29T00:19:39;0.50;;;0.50;;
21497;SDS011;10910;50.932;0.246;2022-07-29T00:22:05;0.60;;;0.60;;
21497;SDS011;10910;50.932;0.246;2022-07-29T00:24:31;0.60;;;0.60;;
21497;SDS011;10910;50.932;0.246;2022-07-29T00:26:57;0.50;;;0.50;;
21497;SDS011;10910;50.932;0.246;2022-07-29T00:29:23;0.50;;;0.50;;
21497;SDS011;10910;50.932;0.246;2022-07-29T00:31:50;0.52;;;0.52;;
21497;SDS011;10910;50.932;0.246;2022-07-29T00:34:16;0.40;;;0.40;;
21497;SDS011;10910;50.932;0.246;2022-07-29T00:37:01;0.65;;;0.65;;
21497;SDS011;10910;50.932;0.246;2022-07-29T00:39:27;0.50;;;0.50;;
21497;SDS011;10910;50.932;0.246;2022-07-29T00:41:53;0.60;;;0.60;;
21497;SDS011;10910;50.932;0.246;2022-07-29T00:44:19;0.60;;;0.60;;
21497;SDS011;10910;50.932;0.246;2022-07-29T00:46:45;0.50;;;0.50;;
21497;SDS011;10910;50.932;0.246;2022-07-29T00:49:12;0.60;;;0.60;;
21497;SDS011;10910;50.932;0.246;2022-07-29T00:51:38;0.50;;;0.50;;
21497;SDS011;10910;50.932;0.246;2022-07-29T00:54:05;0.50;;;0.50;;
21497;SDS011;10910;50.932;0.246;2022-07-29T00:56:31;0.40;;;0.40;;
21497;SDS011;10910;50.932;0.246;2022-07-29T00:58:58;0.60;;;0.60;;
21497;SDS011;10910;50.932;0.246;2022-07-29T01:01:25;0.47;;;0.47;;
21497;SDS011;10910;50.932;0.246;2022-07-29T01:03:52;0.60;;;0.60;;
21497;SDS011;10910;50.932;0.246;2022-07-29T01:06:18;0.60;;;0.60;;
21497;SDS011;10910;50.932;0.246;2022-07-29T01:08:45;0.60;;;0.60;;
21497;SDS011;10910;50.932;0.246;2022-07-29T01:11:12;0.50;;;0.50;;
21497;SDS011;10910;50.932;0.246;2022-07-29T01:13:38;0.50;;;0.50;;
21497;SDS011;10910;50.932;0.246;2022-07-29T01:16:13;0.65;;;0.65;;
21497;SDS011;10910;50.932;0.246;2022-07-29T01:18:41;0.65;;;0.65;;
21497;SDS011;10910;50.932;0.246;2022-07-29T01:24:23;0.50;;;0.50;;
21497;SDS011;10910;50.932;0.246;2022-07-29T01:26:42;0.60;;;0.60;;
21497;SDS011;10910;50.932;0.246;2022-07-29T01:31:59;0.60;;;0.60;;
21497;SDS011;10910;50.932;0.246;2022-07-29T01:34:41;0.60;;;0.60;;
21497;SDS011;10910;50.932;0.246;2022-07-29T01:39:54;0.60;;;0.60;;
21497;SDS011;10910;50.932;0.246;2022-07-29T01:47:37;0.60;;;0.60;;
21497;SDS011;10910;50.932;0.246;2022-07-29T01:50:06;0.50;;;0.50;;
21497;SDS011;10910;50.932;0.246;2022-07-29T01:53:17;0.60;;;0.60;;
21497;SDS011;10910;50.932;0.246;2022-07-29T01:55:25;0.55;;;0.55;;
21497;SDS011;10910;50.932;0.246;2022-07-29T01:57:52;0.63;;;0.63;;
21497;SDS011;10910;50.932;0.246;2022-07-29T02:00:19;0.60;;;0.60;;
21497;SDS011;10910;50.932;0.246;2022-07-29T02:02:45;0.50;;;0.50;;
21497;SDS011;10910;50.932;0.246;2022-07-29T02:05:14;0.50;;;0.50;;
21497;SDS011;10910;50.932;0.246;2022-07-29T02:07:40;0.50;;;0.50;;
21497;SDS011;10910;50.932;0.246;2022-07-29T02:10:08;0.50;;;0.50;;
21497;SDS011;10910;50.932;0.246;2022-07-29T02:12:35;0.50;;;0.50;;
21497;SDS011;10910;50.932;0.246;2022-07-29T02:15:02;0.50;;;0.50;;
21497;SDS011;10910;50.932;0.246;2022-07-29T02:17:33;0.50;;;0.50;;
21497;SDS011;10910;50.932;0.246;2022-07-29T02:20:02;0.50;;;0.50;;
21497;SDS011;10910;50.932;0.246;2022-07-29T02:22:30;0.60;;;0.60;;
21497;SDS011;10910;50.932;0.246;2022-07-29T02:24:57;0.63;;;0.63;;
21497;SDS011;10910;50.932;0.246;2022-07-29T02:27:24;0.55;;;0.55;;
21497;SDS011;10910;50.932;0.246;2022-07-29T02:29:52;0.60;;;0.60;;
21497;SDS011;10910;50.932;0.246;2022-07-29T02:32:19;0.60;;;0.60;;
21497;SDS011;10910;50.932;0.246;2022-07-29T02:34:46;0.50;;;0.50;;
21497;SDS011;10910;50.932;0.246;2022-07-29T02:37:13;0.50;;;0.50;;
21497;SDS011;10910;50.932;0.246;2022-07-29T02:39:41;0.50;;;0.50;;
21497;SDS011;10910;50.932;0.246;2022-07-29T02:42:08;0.50;;;0.50;;
21497;SDS011;10910;50.932;0.246;2022-07-29T02:44:35;0.60;;;0.60;;
21497;SDS011;10910;50.932;0.246;2022-07-29T02:52:08;0.60;;;0.60;;
21497;SDS011;10910;50.932;0.246;2022-07-29T02:54:42;0.50;;;0.50;;
21497;SDS011;10910;50.932;0.246;2022-07-29T02:57:20;0.50;;;0.50;;
21497;SDS011;10910;50.932;0.246;2022-07-29T02:59:48;0.50;;;0.50;;
21497;SDS011;10910;50.932;0.246;2022-07-29T03:02:15;0.50;;;0.50;;
21497;SDS011;10910;50.932;0.246;2022-07-29T03:04:42;0.52;;;0.52;;
21497;SDS011;10910;50.932;0.246;2022-07-29T03:07:09;0.60;;;0.60;;
21497;SDS011;10910;50.932;0.246;2022-07-29T03:09:36;0.60;;;0.60;;
21497;SDS011;10910;50.932;0.246;2022-07-29T03:12:02;0.60;;;0.60;;
21497;SDS011;10910;50.932;0.246;2022-07-29T03:14:29;0.60;;;0.60;;
21497;SDS011;10910;50.932;0.246;2022-07-29T03:16:56;0.60;;;0.60;;
21497;SDS011;10910;50.932;0.246;2022-07-29T03:19:22;0.60;;;0.60;;
21497;SDS011;10910;50.932;0.246;2022-07-29T03:21:48;0.50;;;0.50;;
21497;SDS011;10910;50.932;0.246;2022-07-29T03:24:27;0.60;;;0.60;;
21497;SDS011;10910;50.932;0.246;2022-07-29T03:26:54;0.68;;;0.68;;
21497;SDS011;10910;50.932;0.246;2022-07-29T03:29:21;0.60;;;0.60;;
21497;SDS011;10910;50.932;0.246;2022-07-29T03:31:47;0.50;;;0.50;;
21497;SDS011;10910;50.932;0.246;2022-07-29T03:34:13;0.50;;;0.50;;
21497;SDS011;10910;50.932;0.246;2022-07-29T03:36:39;0.60;;;0.60;;
21497;SDS011;10910;50.932;0.246;2022-07-29T03:39:05;0.50;;;0.50;;
21497;SDS011;10910;50.932;0.246;2022-07-29T03:41:32;0.60;;;0.60;;
21497;SDS011;10910;50.932;0.246;2022-07-29T03:43:59;0.50;;;0.50;;
21497;SDS011;10910;50.932;0.246;2022-07-29T03:46:26;0.60;;;0.60;;
21497;SDS011;10910;50.932;0.246;2022-07-29T03:48:55;0.50;;;0.50;;
21497;SDS011;10910;50.932;0.246;2022-07-29T03:51:23;0.50;;;0.50;;
21497;SDS011;10910;50.932;0.246;2022-07-29T03:53:49;0.45;;;0.45;;
21497;SDS011;10910;50.932;0.246;2022-07-29T03:56:15;0.50;;;0.50;;
21497;SDS011;10910;50.932;0.246;2022-07-29T03:58:42;0.60;;;0.60;;
21497;SDS011;10910;50.932;0.246;2022-07-29T04:01:09;0.60;;;0.60;;
21497;SDS011;10910;50.932;0.246;2022-07-29T04:03:35;0.50;;;0.50;;
21497;SDS011;10910;50.932;0.246;2022-07-29T04:06:02;0.55;;;0.55;;
21497;SDS011;10910;50.932;0.246;2022-07-29T04:08:30;0.65;;;0.65;;
21497;SDS011;10910;50.932;0.246;2022-07-29T04:10:57;0.50;;;0.50;;
21497;SDS011;10910;50.932;0.246;2022-07-29T04:13:23;0.50;;;0.50;;
21497;SDS011;10910;50.932;0.246;2022-07-29T04:15:49;0.60;;;0.60;;
21497;SDS011;10910;50.932;0.246;2022-07-29T04:18:15;0.60;;;0.60;;
21497;SDS011;10910;50.932;0.246;2022-07-29T04:20:41;0.50;;;0.50;;
21497;SDS011;10910;50.932;0.246;2022-07-29T04:23:07;0.50;;;0.50;;
21497;SDS011;10910;50.932;0.246;2022-07-29T04:25:36;0.40;;;0.40;;
21497;SDS011;10910;50.932;0.246;2022-07-29T04:28:02;0.50;;;0.50;;
21497;SDS011;10910;50.932;0.246;2022-07-29T04:30:29;0.50;;;0.50;;
21497;SDS011;10910;50.932;0.246;2022-07-29T04:32:56;0.50;;;0.50;;
21497;SDS011;10910;50.932;0.246;2022-07-29T04:35:22;0.60;;;0.60;;
21497;SDS011;10910;50.932;0.246;2022-07-29T04:37:48;0.50;;;0.50;;
21497;SDS011;10910;50.932;0.246;2022-07-29T04:40:14;0.60;;;0.60;;
21497;SDS011;10910;50.932;0.246;2022-07-29T04:42:40;0.40;;;0.40;;
21497;SDS011;10910;50.932;0.246;2022-07-29T04:45:06;0.60;;;0.60;;
21497;SDS011;10910;50.932;0.246;2022-07-29T04:47:32;0.50;;;0.50;;
21497;SDS011;10910;50.932;0.246;2022-07-29T04:49:58;0.50;;;0.50;;
21497;SDS011;10910;50.932;0.246;2022-07-29T04:52:24;0.50;;;0.50;;
21497;SDS011;10910;50.932;0.246;2022-07-29T04:54:50;0.52;;;0.52;;
21497;SDS011;10910;50.932;0.246;2022-07-29T04:57:16;0.57;;;0.57;;
21497;SDS011;10910;50.932;0.246;2022-07-29T04:59:42;0.50;;;0.50;;
21497;SDS011;10910;50.932;0.246;2022-07-29T05:02:10;0.50;;;0.50;;
21497;SDS011;10910;50.932;0.246;2022-07-29T05:04:36;0.50;;;0.50;;
21497;SDS011;10910;50.932;0.246;2022-07-29T05:07:02;0.40;;;0.40;;
21497;SDS011;10910;50.932;0.246;2022-07-29T05:09:28;0.60;;;0.60;;
21497;SDS011;10910;50.932;0.246;2022-07-29T05:11:54;0.57;;;0.57;;
21497;SDS011;10910;50.932;0.246;2022-07-29T05:14:20;0.50;;;0.50;;
21497;SDS011;10910;50.932;0.246;2022-07-29T05:16:46;0.50;;;0.50;;
21497;SDS011;10910;50.932;0.246;2022-07-29T05:19:13;0.60;;;0.60;;
21497;SDS011;10910;50.932;0.246;2022-07-29T05:21:39;0.47;;;0.47;;
21497;SDS011;10910;50.932;0.246;2022-07-29T05:24:05;0.40;;;0.40;;
21497;SDS011;10910;50.932;0.246;2022-07-29T05:26:31;0.50;;;0.50;;
21497;SDS011;10910;50.932;0.246;2022-07-29T05:28:57;0.50;;;0.50;;
21497;SDS011;10910;50.932;0.246;2022-07-29T05:31:23;0.50;;;0.50;;
21497;SDS011;10910;50.932;0.246;2022-07-29T05:33:49;0.50;;;0.50;;
21497;SDS011;10910;50.932;0.246;2022-07-29T05:36:15;0.50;;;0.50;;
21497;SDS011;10910;50.932;0.246;2022-07-29T05:38:41;0.50;;;0.50;;
21497;SDS011;10910;50.932;0.246;2022-07-29T05:41:08;0.50;;;0.50;;
21497;SDS011;10910;50.932;0.246;2022-07-29T05:43:34;0.40;;;0.40;;
21497;SDS011;10910;50.932;0.246;2022-07-29T05:46:00;0.45;;;0.45;;
21497;SDS011;10910;50.932;0.246;2022-07-29T05:48:26;0.43;;;0.43;;
21497;SDS011;10910;50.932;0.246;2022-07-29T05:50:52;0.50;;;0.50;;
21497;SDS011;10910;50.932;0.246;2022-07-29T05:53:18;0.57;;;0.57;;
21497;SDS011;10910;50.932;0.246;2022-07-29T05:55:44;0.50;;;0.50;;
21497;SDS011;10910;50.932;0.246;2022-07-29T05:58:10;0.50;;;0.50;;
21497;SDS011;10910;50.932;0.246;2022-07-29T06:00:37;0.50;;;0.50;;
21497;SDS011;10910;50.932;0.246;2022-07-29T06:03:03;0.60;;;0.60;;
21497;SDS011;10910;50.932;0.246;2022-07-29T06:05:29;0.40;;;0.40;;
21497;SDS011;10910;50.932;0.246;2022-07-29T06:07:55;0.50;;;0.50;;
21497;SDS011;10910;50.932;0.246;2022-07-29T06:10:21;0.40;;;0.40;;
21497;SDS011;10910;50.932;0.246;2022-07-29T06:12:47;0.50;;;0.50;;
21497;SDS011;10910;50.932;0.246;2022-07-29T06:15:13;0.50;;;0.50;;
21497;SDS011;10910;50.932;0.246;2022-07-29T06:17:40;0.50;;;0.50;;
21497;SDS011;10910;50.932;0.246;2022-07-29T06:20:06;0.50;;;0.50;;
21497;SDS011;10910;50.932;0.246;2022-07-29T06:22:32;0.50;;;0.50;;
21497;SDS011;10910;50.932;0.246;2022-07-29T06:24:58;0.40;;;0.40;;
21497;SDS011;10910;50.932;0.246;2022-07-29T06:27:24;0.40;;;0.40;;
21497;SDS011;10910;50.932;0.246;2022-07-29T06:29:50;0.40;;;0.40;;
21497;SDS011;10910;50.932;0.246;2022-07-29T06:32:17;0.50;;;0.50;;
21497;SDS011;10910;50.932;0.246;2022-07-29T06:34:44;0.50;;;0.50;;
21497;SDS011;10910;50.932;0.246;2022-07-29T06:37:10;0.50;;;0.50;;
21497;SDS011;10910;50.932;0.246;2022-07-29T06:39:36;0.50;;;0.50;;
21497;SDS011;10910;50.932;0.246;2022-07-29T06:42:05;0.47;;;0.47;;
21497;SDS011;10910;50.932;0.246;2022-07-29T06:44:32;0.50;;;0.50;;
21497;SDS011;10910;50.932;0.246;2022-07-29T06:47:01;0.50;;;0.50;;
21497;SDS011;10910;50.932;0.246;2022-07-29T06:49:27;0.45;;;0.45;;
21497;SDS011;10910;50.932;0.246;2022-07-29T06:51:54;0.43;;;0.43;;
21497;SDS011;10910;50.932;0.246;2022-07-29T06:54:20;0.50;;;0.50;;
21497;SDS011;10910;50.932;0.246;2022-07-29T06:56:46;0.40;;;0.40;;
21497;SDS011;10910;50.932;0.246;2022-07-29T06:59:13;0.40;;;0.40;;
21497;SDS011;10910;50.932;0.246;2022-07-29T07:01:40;0.50;;;0.50;;
21497;SDS011;10910;50.932;0.246;2022-07-29T07:04:06;0.50;;;0.50;;
21497;SDS011;10910;50.932;0.246;2022-07-29T07:06:33;0.40;;;0.40;;
21497;SDS011;10910;50.932;0.246;2022-07-29T07:08:59;0.40;;;0.40;;
21497;SDS011;10910;50.932;0.246;2022-07-29T07:11:26;0.40;;;0.40;;
21497;SDS011;10910;50.932;0.246;2022-07-29T07:13:52;0.40;;;0.40;;
21497;SDS011;10910;50.932;0.246;2022-07-29T07:16:18;0.40;;;0.40;;
21497;SDS011;10910;50.932;0.246;2022-07-29T07:18:44;0.40;;;0.40;;
21497;SDS011;10910;50.932;0.246;2022-07-29T07:21:10;0.40;;;0.40;;
21497;SDS011;10910;50.932;0.246;2022-07-29T07:23:36;0.30;;;0.30;;
21497;SDS011;10910;50.932;0.246;2022-07-29T07:26:02;0.40;;;0.40;;
21497;SDS011;10910;50.932;0.246;2022-07-29T07:28:30;0.40;;;0.40;;
21497;SDS011;10910;50.932;0.246;2022-07-29T07:30:56;0.40;;;0.40;;
21497;SDS011;10910;50.932;0.246;2022-07-29T07:33:23;0.40;;;0.40;;
21497;SDS011;10910;50.932;0.246;2022-07-29T07:35:49;0.50;;;0.50;;
21497;SDS011;10910;50.932;0.246;2022-07-29T07:38:15;0.40;;;0.40;;
21497;SDS011;10910;50.932;0.246;2022-07-29T07:40:41;0.30;;;0.30;;
21497;SDS011;10910;50.932;0.246;2022-07-29T07:43:08;0.30;;;0.30;;
21497;SDS011;10910;50.932;0.246;2022-07-29T07:45:34;0.40;;;0.40;;
21497;SDS011;10910;50.932;0.246;2022-07-29T07:48:02;0.30;;;0.30;;
21497;SDS011;10910;50.932;0.246;2022-07-29T07:50:28;0.30;;;0.30;;
21497;SDS011;10910;50.932;0.246;2022-07-29T07:52:55;0.40;;;0.40;;
21497;SDS011;10910;50.932;0.246;2022-07-29T07:55:24;0.30;;;0.30;;
21497;SDS011;10910;50.932;0.246;2022-07-29T07:57:51;0.40;;;0.40;;
21497;SDS011;10910;50.932;0.246;2022-07-29T08:00:17;0.30;;;0.30;;
21497;SDS011;10910;50.932;0.246;2022-07-29T08:02:43;0.30;;;0.30;;
21497;SDS011;10910;50.932;0.246;2022-07-29T08:05:10;0.30;;;0.30;;
21497;SDS011;10910;50.932;0.246;2022-07-29T08:07:37;0.30;;;0.30;;
21497;SDS011;10910;50.932;0.246;2022-07-29T08:10:03;0.30;;;0.30;;
21497;SDS011;10910;50.932;0.246;2022-07-29T08:12:30;0.20;;;0.20;;
21497;SDS011;10910;50.932;0.246;2022-07-29T08:14:56;0.20;;;0.20;;
21497;SDS011;10910;50.932;0.246;2022-07-29T08:17:22;0.40;;;0.40;;
21497;SDS011;10910;50.932;0.246;2022-07-29T08:19:48;0.30;;;0.30;;
21497;SDS011;10910;50.932;0.246;2022-07-29T08:22:14;0.30;;;0.30;;
21497;SDS011;10910;50.932;0.246;2022-07-29T08:24:40;0.30;;;0.30;;
21497;SDS011;10910;50.932;0.246;2022-07-29T08:27:17;0.30;;;0.30;;
21497;SDS011;10910;50.932;0.246;2022-07-29T08:29:43;0.30;;;0.30;;
21497;SDS011;10910;50.932;0.246;2022-07-29T08:32:09;0.30;;;0.30;;
21497;SDS011;10910;50.932;0.246;2022-07-29T08:34:36;0.30;;;0.30;;
21497;SDS011;10910;50.932;0.246;2022-07-29T08:37:02;0.30;;;0.30;;
21497;SDS011;10910;50.932;0.246;2022-07-29T08:39:28;0.20;;;0.20;;
21497;SDS011;10910;50.932;0.246;2022-07-29T08:41:54;0.30;;;0.30;;
21497;SDS011;10910;50.932;0.246;2022-07-29T08:44:21;0.32;;;0.32;;
21497;SDS011;10910;50.932;0.246;2022-07-29T08:46:47;0.30;;;0.30;;
21497;SDS011;10910;50.932;0.246;2022-07-29T08:49:14;0.30;;;0.30;;
21497;SDS011;10910;50.932;0.246;2022-07-29T08:51:40;0.30;;;0.30;;
21497;SDS011;10910;50.932;0.246;2022-07-29T08:54:08;0.30;;;0.30;;
21497;SDS011;10910;50.932;0.246;2022-07-29T08:56:35;0.30;;;0.30;;
21497;SDS011;10910;50.932;0.246;2022-07-29T08:59:04;0.30;;;0.30;;
21497;SDS011;10910;50.932;0.246;2022-07-29T09:01:32;0.30;;;0.30;;
21497;SDS011;10910;50.932;0.246;2022-07-29T09:03:58;0.30;;;0.30;;
21497;SDS011;10910;50.932;0.246;2022-07-29T09:06:26;0.30;;;0.30;;
21497;SDS011;10910;50.932;0.246;2022-07-29T09:08:56;0.30;;;0.30;;
21497;SDS011;10910;50.932;0.246;2022-07-29T09:11:24;0.30;;;0.30;;
21497;SDS011;10910;50.932;0.246;2022-07-29T09:13:50;0.30;;;0.30;;
21497;SDS011;10910;50.932;0.246;2022-07-29T09:16:16;0.30;;;0.30;;
21497;SDS011;10910;50.932;0.246;2022-07-29T09:18:43;0.30;;;0.30;;
21497;SDS011;10910;50.932;0.246;2022-07-29T09:21:11;0.30;;;0.30;;
21497;SDS011;10910;50.932;0.246;2022-07-29T09:24:06;0.30;;;0.30;;
21497;SDS011;10910;50.932;0.246;2022-07-29T09:26:34;0.30;;;0.30;;
21497;SDS011;10910;50.932;0.246;2022-07-29T09:29:07;0.30;;;0.30;;
21497;SDS011;10910;50.932;0.246;2022-07-29T09:31:34;0.20;;;0.20;;
21497;SDS011;10910;50.932;0.246;2022-07-29T09:34:01;0.30;;;0.30;;
21497;SDS011;10910;50.932;0.246;2022-07-29T09:36:28;0.20;;;0.20;;
21497;SDS011;10910;50.932;0.246;2022-07-29T09:39:00;0.30;;;0.30;;
21497;SDS011;10910;50.932;0.246;2022-07-29T09:41:28;0.30;;;0.30;;
21497;SDS011;10910;50.932;0.246;2022-07-29T09:43:55;0.30;;;0.30;;
21497;SDS011;10910;50.932;0.246;2022-07-29T09:46:21;0.30;;;0.30;;
21497;SDS011;10910;50.932;0.246;2022-07-29T09:51:33;0.20;;;0.20;;
21497;SDS011;10910;50.932;0.246;2022-07-29T09:54:00;0.20;;;0.20;;
21497;SDS011;10910;50.932;0.246;2022-07-29T09:56:41;0.20;;;0.20;;
21497;SDS011;10910;50.932;0.246;2022-07-29T09:59:08;0.20;;;0.20;;
21497;SDS011;10910;50.932;0.246;2022-07-29T10:01:36;0.20;;;0.20;;
21497;SDS011;10910;50.932;0.246;2022-07-29T10:04:02;0.20;;;0.20;;
21497;SDS011;10910;50.932;0.246;2022-07-29T10:06:28;0.20;;;0.20;;
21497;SDS011;10910;50.932;0.246;2022-07-29T10:08:54;0.10;;;0.10;;
21497;SDS011;10910;50.932;0.246;2022-07-29T10:11:20;0.10;;;0.10;;
21497;SDS011;10910;50.932;0.246;2022-07-29T10:13:47;0.20;;;0.20;;
21497;SDS011;10910;50.932;0.246;2022-07-29T10:16:14;0.10;;;0.10;;
21497;SDS011;10910;50.932;0.246;2022-07-29T10:18:41;0.10;;;0.10;;
21497;SDS011;10910;50.932;0.246;2022-07-29T10:21:08;0.20;;;0.20;;
21497;SDS011;10910;50.932;0.246;2022-07-29T10:23:35;0.10;;;0.10;;
21497;SDS011;10910;50.932;0.246;2022-07-29T10:26:02;0.15;;;0.15;;
21497;SDS011;10910;50.932;0.246;2022-07-29T10:28:29;0.10;;;0.10;;
21497;SDS011;10910;50.932;0.246;2022-07-29T10:30:58;0.10;;;0.10;;
21497;SDS011;10910;50.932;0.246;2022-07-29T10:44:00;0.10;;;0.10;;
21497;SDS011;10910;50.932;0.246;2022-07-29T10:46:27;0.10;;;0.10;;
21497;SDS011;10910;50.932;0.246;2022-07-29T10:54:17;0.10;;;0.10;;
21497;SDS011;10910;50.932;0.246;2022-07-29T10:56:44;0.10;;;0.10;;
21497;SDS011;10910;50.932;0.246;2022-07-29T11:01:47;0.10;;;0.10;;
21497;SDS011;10910;50.932;0.246;2022-07-29T11:04:14;0.10;;;0.10;;
21497;SDS011;10910;50.932;0.246;2022-07-29T11:09:25;0.10;;;0.10;;
21497;SDS011;10910;50.932;0.246;2022-07-29T11:11:52;0.10;;;0.10;;
21497;SDS011;10910;50.932;0.246;2022-07-29T11:14:18;0.10;;;0.10;;
21497;SDS011;10910;50.932;0.246;2022-07-29T11:17:04;0.10;;;0.10;;
21497;SDS011;10910;50.932;0.246;2022-07-29T11:19:32;0.10;;;0.10;;
21497;SDS011;10910;50.932;0.246;2022-07-29T11:21:58;0.10;;;0.10;;
21497;SDS011;10910;50.932;0.246;2022-07-29T11:24:26;0.10;;;0.10;;
21497;SDS011;10910;50.932;0.246;2022-07-29T11:27:09;0.20;;;0.20;;
21497;SDS011;10910;50.932;0.246;2022-07-29T11:29:38;0.10;;;0.10;;
21497;SDS011;10910;50.932;0.246;2022-07-29T11:32:09;0.10;;;0.10;;
21497;SDS011;10910;50.932;0.246;2022-07-29T11:34:37;0.10;;;0.10;;
21497;SDS011;10910;50.932;0.246;2022-07-29T11:39:35;0.20;;;0.20;;
21497;SDS011;10910;50.932;0.246;2022-07-29T11:44:59;0.10;;;0.10;;
21497;SDS011;10910;50.932;0.246;2022-07-29T11:47:26;0.10;;;0.10;;
21497;SDS011;10910;50.932;0.246;2022-07-29T11:49:53;0.10;;;0.10;;
21497;SDS011;10910;50.932;0.246;2022-07-29T11:52:19;0.10;;;0.10;;
21497;SDS011;10910;50.932;0.246;2022-07-29T11:54:49;0.10;;;0.10;;
21497;SDS011;10910;50.932;0.246;2022-07-29T11:57:16;0.20;;;0.20;;
21497;SDS011;10910;50.932;0.246;2022-07-29T11:59:43;0.22;;;0.22;;
21497;SDS011;10910;50.932;0.246;2022-07-29T12:02:10;0.20;;;0.20;;
21497;SDS011;10910;50.932;0.246;2022-07-29T12:04:49;0.10;;;0.10;;
21497;SDS011;10910;50.932;0.246;2022-07-29T12:07:15;0.10;;;0.10;;
21497;SDS011;10910;50.932;0.246;2022-07-29T12:09:51;0.10;;;0.10;;
21497;SDS011;10910;50.932;0.246;2022-07-29T12:12:17;0.10;;;0.10;;
21497;SDS011;10910;50.932;0.246;2022-07-29T12:14:43;0.20;;;0.20;;
21497;SDS011;10910;50.932;0.246;2022-07-29T12:17:25;0.10;;;0.10;;
21497;SDS011;10910;50.932;0.246;2022-07-29T12:19:55;0.10;;;0.10;;
21497;SDS011;10910;50.932;0.246;2022-07-29T12:22:34;0.17;;;0.17;;
21497;SDS011;10910;50.932;0.246;2022-07-29T12:25:12;0.10;;;0.10;;
21497;SDS011;10910;50.932;0.246;2022-07-29T12:27:39;0.20;;;0.20;;
21497;SDS011;10910;50.932;0.246;2022-07-29T12:30:13;0.10;;;0.10;;
21497;SDS011;10910;50.932;0.246;2022-07-29T12:32:47;0.10;;;0.10;;
21497;SDS011;10910;50.932;0.246;2022-07-29T12:35:18;0.10;;;0.10;;
21497;SDS011;10910;50.932;0.246;2022-07-29T12:37:45;0.17;;;0.17;;
21497;SDS011;10910;50.932;0.246;2022-07-29T12:40:13;0.10;;;0.10;;
21497;SDS011;10910;50.932;0.246;2022-07-29T12:42:41;0.10;;;0.10;;
21497;SDS011;10910;50.932;0.246;2022-07-29T12:45:07;0.17;;;0.17;;
21497;SDS011;10910;50.932;0.246;2022-07-29T12:47:33;0.10;;;0.10;;
21497;SDS011;10910;50.932;0.246;2022-07-29T12:50:11;0.10;;;0.10;;
21497;SDS011;10910;50.932;0.246;2022-07-29T12:52:42;0.10;;;0.10;;
21497;SDS011;10910;50.932;0.246;2022-07-29T12:55:09;0.10;;;0.10;;
21497;SDS011;10910;50.932;0.246;2022-07-29T12:57:48;0.10;;;0.10;;
21497;SDS011;10910;50.932;0.246;2022-07-29T13:00:21;0.15;;;0.15;;
21497;SDS011;10910;50.932;0.246;2022-07-29T13:02:53;0.10;;;0.10;;
21497;SDS011;10910;50.932;0.246;2022-07-29T13:05:20;0.10;;;0.10;;
21497;SDS011;10910;50.932;0.246;2022-07-29T13:07:46;0.10;;;0.10;;
21497;SDS011;10910;50.932;0.246;2022-07-29T13:10:17;0.10;;;0.10;;
21497;SDS011;10910;50.932;0.246;2022-07-29T13:15:28;0.10;;;0.10;;
21497;SDS011;10910;50.932;0.246;2022-07-29T13:17:54;0.10;;;0.10;;
21497;SDS011;10910;50.932;0.246;2022-07-29T13:20:23;0.10;;;0.10;;
21497;SDS011;10910;50.932;0.246;2022-07-29T13:22:49;0.20;;;0.20;;
21497;SDS011;10910;50.932;0.246;2022-07-29T13:25:23;0.10;;;0.10;;
21497;SDS011;10910;50.932;0.246;2022-07-29T13:27:49;0.20;;;0.20;;
21497;SDS011;10910;50.932;0.246;2022-07-29T13:30:15;0.20;;;0.20;;
21497;SDS011;10910;50.932;0.246;2022-07-29T13:32:42;0.30;;;0.30;;
21497;SDS011;10910;50.932;0.246;2022-07-29T13:35:08;0.20;;;0.20;;
21497;SDS011;10910;50.932;0.246;2022-07-29T13:37:35;0.20;;;0.20;;
21497;SDS011;10910;50.932;0.246;2022-07-29T13:40:05;0.20;;;0.20;;
21497;SDS011;10910;50.932;0.246;2022-07-29T13:42:32;0.20;;;0.20;;
21497;SDS011;10910;50.932;0.246;2022-07-29T13:44:58;0.10;;;0.10;;
21497;SDS011;10910;50.932;0.246;2022-07-29T13:47:24;0.10;;;0.10;;
21497;SDS011;10910;50.932;0.246;2022-07-29T13:49:50;0.20;;;0.20;;
21497;SDS011;10910;50.932;0.246;2022-07-29T13:52:18;0.10;;;0.10;;
21497;SDS011;10910;50.932;0.246;2022-07-29T13:54:44;0.20;;;0.20;;
21497;SDS011;10910;50.932;0.246;2022-07-29T13:57:11;0.10;;;0.10;;
21497;SDS011;10910;50.932;0.246;2022-07-29T13:59:37;0.10;;;0.10;;
21497;SDS011;10910;50.932;0.246;2022-07-29T14:02:04;0.10;;;0.10;;
21497;SDS011;10910;50.932;0.246;2022-07-29T14:04:31;0.10;;;0.10;;
21497;SDS011;10910;50.932;0.246;2022-07-29T14:06:58;0.10;;;0.10;;
21497;SDS011;10910;50.932;0.246;2022-07-29T14:09:24;0.10;;;0.10;;
21497;SDS011;10910;50.932;0.246;2022-07-29T14:11:50;0.15;;;0.15;;
21497;SDS011;10910;50.932;0.246;2022-07-29T14:14:18;0.20;;;0.20;;
21497;SDS011;10910;50.932;0.246;2022-07-29T14:16:44;0.10;;;0.10;;
21497;SDS011;10910;50.932;0.246;2022-07-29T14:19:10;0.10;;;0.10;;
21497;SDS011;10910;50.932;0.246;2022-07-29T14:21:37;0.20;;;0.20;;
21497;SDS011;10910;50.932;0.246;2022-07-29T14:24:03;0.20;;;0.20;;
21497;SDS011;10910;50.932;0.246;2022-07-29T14:26:29;0.10;;;0.10;;
21497;SDS011;10910;50.932;0.246;2022-07-29T14:28:56;0.10;;;0.10;;
21497;SDS011;10910;50.932;0.246;2022-07-29T14:31:22;0.10;;;0.10;;
21497;SDS011;10910;50.932;0.246;2022-07-29T14:33:48;0.10;;;0.10;;
21497;SDS011;10910;50.932;0.246;2022-07-29T14:36:14;0.10;;;0.10;;
21497;SDS011;10910;50.932;0.246;2022-07-29T14:38:40;0.10;;;0.10;;
21497;SDS011;10910;50.932;0.246;2022-07-29T14:41:07;0.10;;;0.10;;
21497;SDS011;10910;50.932;0.246;2022-07-29T14:43:33;0.15;;;0.15;;
21497;SDS011;10910;50.932;0.246;2022-07-29T14:46:00;0.10;;;0.10;;
21497;SDS011;10910;50.932;0.246;2022-07-29T14:48:26;0.10;;;0.10;;
21497;SDS011;10910;50.932;0.246;2022-07-29T14:50:52;0.10;;;0.10;;
21497;SDS011;10910;50.932;0.246;2022-07-29T14:53:19;0.10;;;0.10;;
21497;SDS011;10910;50.932;0.246;2022-07-29T14:55:45;0.20;;;0.20;;
21497;SDS011;10910;50.932;0.246;2022-07-29T14:58:11;0.10;;;0.10;;
21497;SDS011;10910;50.932;0.246;2022-07-29T15:00:37;0.20;;;0.20;;
21497;SDS011;10910;50.932;0.246;2022-07-29T15:03:04;0.20;;;0.20;;
21497;SDS011;10910;50.932;0.246;2022-07-29T15:05:30;0.30;;;0.30;;
21497;SDS011;10910;50.932;0.246;2022-07-29T15:08:03;0.20;;;0.20;;
21497;SDS011;10910;50.932;0.246;2022-07-29T15:10:30;0.20;;;0.20;;
21497;SDS011;10910;50.932;0.246;2022-07-29T15:12:56;0.22;;;0.22;;
21497;SDS011;10910;50.932;0.246;2022-07-29T15:15:22;0.30;;;0.30;;
21497;SDS011;10910;50.932;0.246;2022-07-29T15:17:48;0.38;;;0.38;;
21497;SDS011;10910;50.932;0.246;2022-07-29T15:20:14;0.20;;;0.20;;
21497;SDS011;10910;50.932;0.246;2022-07-29T15:22:41;0.20;;;0.20;;
21497;SDS011;10910;50.932;0.246;2022-07-29T15:25:08;0.20;;;0.20;;
21497;SDS011;10910;50.932;0.246;2022-07-29T15:27:34;0.13;;;0.13;;
21497;SDS011;10910;50.932;0.246;2022-07-29T15:30:00;0.10;;;0.10;;
21497;SDS011;10910;50.932;0.246;2022-07-29T15:32:26;0.15;;;0.15;;
21497;SDS011;10910;50.932;0.246;2022-07-29T15:34:52;0.10;;;0.10;;
21497;SDS011;10910;50.932;0.246;2022-07-29T15:37:18;0.20;;;0.20;;
21497;SDS011;10910;50.932;0.246;2022-07-29T15:39:44;0.10;;;0.10;;